createdAt,value
2022-10-21T00:00:20.104Z,15.25
2022-10-21T00:02:46.963Z,15.00
2022-10-21T00:05:13.898Z,15.33
2022-10-21T00:07:40.718Z,17.33
2022-10-21T00:10:09.670Z,15.50
2022-10-21T00:12:38.633Z,16.25
2022-10-21T00:15:08.064Z,15.75
2022-10-21T00:17:35.842Z,14.75
2022-10-21T00:20:04.308Z,16.33
2022-10-21T00:22:31.678Z,16.33
2022-10-21T00:24:58.670Z,17.67
2022-10-21T00:27:27.637Z,15.00
2022-10-21T00:29:56.089Z,13.25
2022-10-21T00:32:22.901Z,15.50
2022-10-21T00:34:49.766Z,16.50
2022-10-21T00:37:16.636Z,13.67
2022-10-21T00:39:44.278Z,15.00
2022-10-21T00:42:18.453Z,12.67
2022-10-21T00:47:44.817Z,14.33
2022-10-21T00:50:26.048Z,15.33
2022-10-21T00:52:56.011Z,14.75
2022-10-21T00:55:25.831Z,13.25
2022-10-21T00:57:53.690Z,16.25
2022-10-21T01:00:20.863Z,14.75
2022-10-21T01:02:49.043Z,12.50
2022-10-21T01:05:17.330Z,12.75
2022-10-21T01:07:47.517Z,12.33
2022-10-21T01:10:14.708Z,10.50
2022-10-21T01:12:59.893Z,6.50
2022-10-21T01:15:41.338Z,13.00
2022-10-21T01:18:18.588Z,14.75
2022-10-21T01:21:20.007Z,15.00
2022-10-21T01:24:47.878Z,14.33
2022-10-21T01:27:32.837Z,14.00
2022-10-21T01:30:38.117Z,13.75
2022-10-21T01:33:39.363Z,11.00
2022-10-21T01:36:23.928Z,13.25
2022-10-21T01:39:08.650Z,12.25
2022-10-21T01:41:43.935Z,12.67
2022-10-21T01:44:24.114Z,14.00
2022-10-21T01:47:00.630Z,14.00
2022-10-21T01:49:34.801Z,14.25
2022-10-21T01:52:03.847Z,15.75
2022-10-21T01:54:37.697Z,14.75
2022-10-21T01:57:09.836Z,13.75
2022-10-21T01:59:38.785Z,11.50
2022-10-21T02:02:09.813Z,9.00
2022-10-21T02:04:41.920Z,13.75
2022-10-21T02:07:09.182Z,1.00
2022-10-21T02:09:36.214Z,13.75
2022-10-21T02:12:06.289Z,11.50
2022-10-21T02:14:37.139Z,12.50
2022-10-21T02:17:10.037Z,13.75
2022-10-21T02:19:36.998Z,12.33
2022-10-21T02:22:07.106Z,11.33
2022-10-21T02:24:43.031Z,14.00
2022-10-21T02:27:10.021Z,11.00
2022-10-21T02:29:41.720Z,11.67
2022-10-21T02:32:26.516Z,14.67
2022-10-21T02:35:21.358Z,12.00
2022-10-21T02:38:00.377Z,14.33
2022-10-21T02:40:35.611Z,13.33
2022-10-21T02:43:09.016Z,9.00
2022-10-21T02:45:36.350Z,14.25
2022-10-21T02:48:05.493Z,11.50
2022-10-21T02:50:32.645Z,12.25
2022-10-21T02:52:59.537Z,9.50
2022-10-21T02:55:26.541Z,10.75
2022-10-21T02:57:53.379Z,5.00
2022-10-21T03:00:20.354Z,6.00
2022-10-21T03:02:51.634Z,9.75
2022-10-21T03:05:20.160Z,11.00
2022-10-21T03:07:47.297Z,10.75
2022-10-21T03:10:14.512Z,11.75
2022-10-21T03:12:41.529Z,11.50
2022-10-21T03:15:11.373Z,13.00
2022-10-21T03:17:38.640Z,12.75
2022-10-21T03:20:06.583Z,11.00
2022-10-21T03:22:34.919Z,11.50
2022-10-21T03:25:01.891Z,11.75
2022-10-21T03:27:28.734Z,11.75
2022-10-21T03:29:55.957Z,12.25
2022-10-21T03:32:22.871Z,11.50
2022-10-21T03:34:50.228Z,10.50
2022-10-21T03:37:17.402Z,11.50
2022-10-21T03:39:46.852Z,11.25
2022-10-21T03:42:13.867Z,9.50
2022-10-21T03:44:41.070Z,10.25
2022-10-21T03:47:11.221Z,10.25
2022-10-21T03:49:40.172Z,11.75
2022-10-21T03:52:07.135Z,10.50
2022-10-21T03:54:34.110Z,11.25
2022-10-21T03:57:02.394Z,12.00
2022-10-21T03:59:29.339Z,9.25
2022-10-21T04:01:56.315Z,12.25
2022-10-21T04:04:23.353Z,12.25
2022-10-21T04:06:50.170Z,11.00
2022-10-21T04:09:17.388Z,10.75
2022-10-21T04:11:44.476Z,11.25
2022-10-21T04:14:15.276Z,12.75
2022-10-21T04:24:32.783Z,11.25
2022-10-21T04:27:04.116Z,10.50
2022-10-21T04:29:36.256Z,11.75
2022-10-21T04:32:03.477Z,11.00
2022-10-21T04:34:30.427Z,11.75
2022-10-21T04:37:01.000Z,13.75
2022-10-21T04:39:31.194Z,7.00
2022-10-21T04:41:58.282Z,13.50
2022-10-21T04:44:25.401Z,11.25
2022-10-21T04:46:53.557Z,13.25
2022-10-21T04:49:20.406Z,14.00
2022-10-21T04:51:47.377Z,11.25
2022-10-21T04:54:14.270Z,11.25
2022-10-21T04:56:41.495Z,10.00
2022-10-21T04:59:08.854Z,9.25
2022-10-21T05:01:35.809Z,11.00
2022-10-21T05:04:04.125Z,11.33
2022-10-21T05:06:31.384Z,9.67
2022-10-21T05:08:58.266Z,9.33
2022-10-21T05:11:25.193Z,2.00
2022-10-21T05:13:52.218Z,12.75
2022-10-21T05:16:18.974Z,11.25
2022-10-21T05:18:45.710Z,10.75
2022-10-21T05:21:14.319Z,11.00
2022-10-21T05:23:41.964Z,10.00
2022-10-21T05:26:08.816Z,10.25
2022-10-21T05:28:36.456Z,12.00
2022-10-21T05:31:03.501Z,12.50
2022-10-21T05:33:30.329Z,8.00
2022-10-21T05:36:02.972Z,11.50
2022-10-21T05:38:31.974Z,11.50
2022-10-21T05:40:58.952Z,10.50
2022-10-21T05:43:26.305Z,11.50
2022-10-21T05:45:53.255Z,11.75
2022-10-21T05:48:20.388Z,11.00
2022-10-21T05:50:47.570Z,10.25
2022-10-21T05:53:14.817Z,9.33
2022-10-21T05:55:53.915Z,9.00
2022-10-21T05:58:20.644Z,11.67
2022-10-21T06:00:50.887Z,10.00
2022-10-21T06:03:17.719Z,8.33
2022-10-21T06:05:44.509Z,8.67
2022-10-21T06:08:11.280Z,8.00
2022-10-21T06:10:38.418Z,10.00
2022-10-21T06:13:06.589Z,10.33
2022-10-21T06:15:33.518Z,9.33
2022-10-21T06:18:00.391Z,10.00
2022-10-21T06:20:27.237Z,11.00
2022-10-21T06:22:54.231Z,8.00
2022-10-21T06:25:21.016Z,9.33
2022-10-21T06:27:47.787Z,8.50
2022-10-21T06:30:16.025Z,7.25
2022-10-21T06:32:42.819Z,8.67
2022-10-21T06:35:09.607Z,9.67
2022-10-21T06:37:36.790Z,8.33
2022-10-21T06:40:04.979Z,6.33
2022-10-21T06:42:31.752Z,9.00
2022-10-21T06:45:00.282Z,9.67
2022-10-21T06:47:28.725Z,9.25
2022-10-21T06:49:55.534Z,8.00
2022-10-21T06:52:22.324Z,7.67
2022-10-21T06:54:49.719Z,9.00
2022-10-21T06:57:16.461Z,8.33
2022-10-21T06:59:43.282Z,7.00
2022-10-21T07:02:10.309Z,7.75
2022-10-21T07:04:38.462Z,4.75
2022-10-21T07:07:05.265Z,6.50
2022-10-21T07:09:32.294Z,6.33
2022-10-21T07:12:00.707Z,6.67
2022-10-21T07:14:27.715Z,6.67
2022-10-21T07:16:54.490Z,7.67
2022-10-21T07:19:21.454Z,7.50
2022-10-21T07:21:49.681Z,5.67
2022-10-21T07:24:19.961Z,7.33
2022-10-21T07:26:49.454Z,4.25
2022-10-21T07:29:17.213Z,5.67
2022-10-21T07:31:45.149Z,4.67
2022-10-21T07:34:12.709Z,5.75
2022-10-21T07:36:42.314Z,5.67
2022-10-21T07:39:13.706Z,4.50
2022-10-21T07:41:44.375Z,4.75
2022-10-21T07:44:12.580Z,4.25
2022-10-21T07:46:41.967Z,4.25
2022-10-21T07:49:10.683Z,3.50
2022-10-21T07:51:39.265Z,3.50
2022-10-21T07:54:06.971Z,5.00
2022-10-21T07:56:40.250Z,4.75
2022-10-21T07:59:12.640Z,4.00
2022-10-21T08:01:41.912Z,5.75
2022-10-21T08:04:10.689Z,5.25
2022-10-21T08:06:37.540Z,5.25
2022-10-21T08:09:05.127Z,5.33
2022-10-21T08:11:35.645Z,5.00
2022-10-21T08:14:06.246Z,4.75
2022-10-21T08:16:33.950Z,4.75
2022-10-21T08:19:01.715Z,7.00
2022-10-21T08:21:28.722Z,2.25
2022-10-21T08:23:55.560Z,5.50
2022-10-21T08:26:22.382Z,5.25
2022-10-21T08:28:50.602Z,4.75
2022-10-21T08:31:21.824Z,5.50
2022-10-21T08:33:49.772Z,3.75
2022-10-21T08:36:19.804Z,5.00
2022-10-21T08:38:47.172Z,4.00
2022-10-21T08:41:41.306Z,4.25
2022-10-21T08:44:26.108Z,3.50
2022-10-21T08:47:06.546Z,5.75
2022-10-21T08:49:50.591Z,4.50
2022-10-21T08:52:25.987Z,3.00
2022-10-21T08:54:59.256Z,4.25
2022-10-21T08:57:27.901Z,5.50
2022-10-21T08:59:59.115Z,5.33
2022-10-21T09:02:42.921Z,6.50
2022-10-21T09:08:17.124Z,6.67
2022-10-21T09:10:58.977Z,5.75
2022-10-21T09:13:55.306Z,6.00
2022-10-21T09:16:42.755Z,5.00
2022-10-21T09:19:26.995Z,4.75
2022-10-21T09:22:34.723Z,6.25
2022-10-21T09:25:19.790Z,5.50
2022-10-21T09:28:02.978Z,6.67
2022-10-21T09:30:30.205Z,5.25
2022-10-21T09:33:00.206Z,7.75
2022-10-21T09:35:37.817Z,6.00
2022-10-21T09:38:16.463Z,6.00
2022-10-21T09:40:45.560Z,13.33
2022-10-21T09:43:25.034Z,3.75
2022-10-21T09:45:52.394Z,6.00
2022-10-21T09:48:33.726Z,6.50
2022-10-21T09:51:13.603Z,6.50
2022-10-21T09:53:53.883Z,7.75
2022-10-21T09:56:27.661Z,6.25
2022-10-21T09:59:07.512Z,6.00
2022-10-21T10:01:37.598Z,5.00
2022-10-21T10:04:14.398Z,6.75
2022-10-21T10:06:44.803Z,20.00
2022-10-21T10:09:24.393Z,6.00
2022-10-21T10:11:55.923Z,7.25
2022-10-21T10:14:33.102Z,6.50
2022-10-21T10:17:27.593Z,5.00
2022-10-21T10:20:19.395Z,6.75
2022-10-21T10:23:06.183Z,5.50
2022-10-21T10:25:36.374Z,4.75
2022-10-21T10:28:18.844Z,5.50
2022-10-21T10:30:51.669Z,5.00
2022-10-21T10:33:23.842Z,5.50
2022-10-21T10:35:55.691Z,4.25
2022-10-21T10:38:29.581Z,3.75
2022-10-21T10:41:06.960Z,4.00
2022-10-21T10:43:42.179Z,3.00
2022-10-21T10:46:20.581Z,3.50
2022-10-21T10:48:51.789Z,3.25
2022-10-21T10:51:29.355Z,4.25
2022-10-21T10:54:03.624Z,3.00
2022-10-21T10:56:38.043Z,3.00
2022-10-21T10:59:17.117Z,4.00
2022-10-21T11:01:56.626Z,5.00
2022-10-21T11:04:34.343Z,4.50
2022-10-21T11:07:15.636Z,6.00
2022-10-21T11:09:42.575Z,5.25
2022-10-21T11:12:18.835Z,6.00
2022-10-21T11:14:53.110Z,3.50
2022-10-21T11:17:22.424Z,4.00
2022-10-21T11:19:58.123Z,4.00
2022-10-21T11:22:42.708Z,2.25
2022-10-21T11:25:21.699Z,4.00
2022-10-21T11:28:11.750Z,2.25
2022-10-21T11:31:13.215Z,3.25
2022-10-21T11:33:50.917Z,2.00
2022-10-21T11:36:32.514Z,2.00
2022-10-21T11:39:35.353Z,4.25
2022-10-21T11:42:19.906Z,3.75
2022-10-21T11:45:18.595Z,3.00
2022-10-21T11:47:58.961Z,3.25
2022-10-21T11:50:39.523Z,3.50
2022-10-21T11:53:25.307Z,3.50
2022-10-21T11:56:14.310Z,3.50
2022-10-21T11:58:59.667Z,4.00
2022-10-21T12:01:37.584Z,4.00
2022-10-21T12:04:32.190Z,4.50
2022-10-21T12:07:16.712Z,6.00
2022-10-21T12:09:52.390Z,4.25
2022-10-21T12:12:28.106Z,1.75
2022-10-21T12:14:58.157Z,5.00
2022-10-21T12:17:26.254Z,4.00
2022-10-21T12:19:57.925Z,5.25
2022-10-21T12:22:28.766Z,3.75
2022-10-21T12:25:09.514Z,3.75
2022-10-21T12:27:46.926Z,3.75
2022-10-21T12:30:23.515Z,4.25
2022-10-21T12:33:16.075Z,3.75
2022-10-21T12:35:50.559Z,3.50
2022-10-21T12:38:42.152Z,4.75
2022-10-21T12:41:31.346Z,3.00
2022-10-21T12:44:22.169Z,4.00
2022-10-21T12:46:53.683Z,4.25
2022-10-21T12:49:30.758Z,2.00
2022-10-21T12:52:08.252Z,3.00
2022-10-21T12:54:49.511Z,1.50
2022-10-21T12:57:27.115Z,4.00
2022-10-21T13:00:50.354Z,1.00
2022-10-21T13:03:21.255Z,3.00
2022-10-21T13:06:02.668Z,3.00
2022-10-21T13:08:50.390Z,3.25
2022-10-21T13:11:38.861Z,3.00
2022-10-21T13:14:33.539Z,2.50
2022-10-21T13:17:50.869Z,1.00
2022-10-21T13:20:46.631Z,1.00
2022-10-21T13:23:35.804Z,1.25
2022-10-21T13:26:21.038Z,1.00
2022-10-21T13:29:01.805Z,0.25
2022-10-21T13:31:30.316Z,1.00
2022-10-21T13:34:03.298Z,1.00
2022-10-21T13:36:40.408Z,1.00
2022-10-21T13:39:27.182Z,0.75
2022-10-21T13:42:03.846Z,0.00
2022-10-21T13:44:38.162Z,0.00
2022-10-21T13:47:28.705Z,1.00
2022-10-21T13:50:13.453Z,1.00
2022-10-21T13:52:43.678Z,0.00
2022-10-21T13:55:20.151Z,5.75
2022-10-21T13:57:50.402Z,1.25
2022-10-21T14:00:33.161Z,4.25
2022-10-21T14:03:03.011Z,3.00
2022-10-21T14:05:40.398Z,1.25
2022-10-21T14:08:23.626Z,1.00
2022-10-21T14:10:51.640Z,1.00
2022-10-21T14:13:25.081Z,1.50
2022-10-21T14:15:52.737Z,0.00
2022-10-21T14:18:33.583Z,0.00
2022-10-21T14:21:08.298Z,0.00
2022-10-21T14:23:35.480Z,0.25
2022-10-21T14:26:07.679Z,1.00
2022-10-21T14:28:36.669Z,1.25
2022-10-21T14:33:36.032Z,0.00
2022-10-21T14:36:10.026Z,1.00
2022-10-21T14:38:43.065Z,0.00
2022-10-21T14:41:20.121Z,0.00
2022-10-21T14:43:51.049Z,0.75
2022-10-21T14:46:18.616Z,1.00
2022-10-21T14:48:50.769Z,0.00
2022-10-21T14:51:22.240Z,1.75
2022-10-21T14:53:56.471Z,3.25
2022-10-21T14:56:32.171Z,4.25
2022-10-21T14:59:16.227Z,7.00
2022-10-21T15:01:44.586Z,7.00
2022-10-21T15:04:41.691Z,6.25
2022-10-21T15:07:24.270Z,4.00
2022-10-21T15:10:17.844Z,2.25
2022-10-21T15:12:46.883Z,3.00
2022-10-21T15:15:49.695Z,1.00
2022-10-21T15:18:24.890Z,1.50
2022-10-21T15:20:56.471Z,1.00
2022-10-21T15:23:30.881Z,2.00
2022-10-21T15:26:03.849Z,0.00
2022-10-21T15:28:33.508Z,1.00
2022-10-21T15:31:02.095Z,1.25
2022-10-21T15:33:29.700Z,8.25
2022-10-21T15:36:01.175Z,2.75
2022-10-21T15:38:29.681Z,2.00
2022-10-21T15:40:56.614Z,5.25
2022-10-21T15:43:23.527Z,6.00
2022-10-21T15:45:50.442Z,3.50
2022-10-21T15:48:17.324Z,3.00
2022-10-21T15:50:44.551Z,1.75
2022-10-21T15:53:11.413Z,1.00
2022-10-21T15:55:39.597Z,1.00
2022-10-21T15:58:07.999Z,1.00
2022-10-21T16:00:40.041Z,0.00
2022-10-21T16:03:08.610Z,0.00
2022-10-21T16:05:37.109Z,1.00
2022-10-21T16:08:04.776Z,0.25
2022-10-21T16:10:36.095Z,0.75
2022-10-21T16:13:04.326Z,1.00
2022-10-21T16:15:31.108Z,1.75
2022-10-21T16:17:58.524Z,0.25
2022-10-21T16:20:29.407Z,2.50
2022-10-21T16:22:59.242Z,1.00
2022-10-21T16:25:28.982Z,0.00
2022-10-21T16:27:56.861Z,0.00
2022-10-21T16:30:28.812Z,0.00
2022-10-21T16:32:55.987Z,1.00
2022-10-21T16:35:23.522Z,1.00
2022-10-21T16:37:50.716Z,3.00
2022-10-21T16:40:21.988Z,0.00
2022-10-21T16:42:50.562Z,0.00
2022-10-21T16:45:19.416Z,0.00
2022-10-21T16:47:51.799Z,3.00
2022-10-21T16:50:25.426Z,3.00
2022-10-21T16:52:52.514Z,3.00
2022-10-21T16:55:19.607Z,1.00
2022-10-21T16:57:46.502Z,1.00
2022-10-21T17:00:15.284Z,1.00
2022-10-21T17:02:47.758Z,1.50
2022-10-21T17:05:15.146Z,0.00
2022-10-21T17:07:42.385Z,0.75
2022-10-21T17:10:10.102Z,1.25
2022-10-21T17:12:37.222Z,1.50
2022-10-21T17:15:05.132Z,1.00
2022-10-21T17:17:32.068Z,1.00
2022-10-21T17:20:00.322Z,2.00
2022-10-21T17:22:27.099Z,2.00
2022-10-21T17:24:53.877Z,1.50
2022-10-21T17:27:24.180Z,1.50
2022-10-21T17:29:51.014Z,2.00
2022-10-21T17:32:18.377Z,1.25
2022-10-21T17:34:45.275Z,1.00
2022-10-21T17:37:16.565Z,2.00
2022-10-21T17:39:43.371Z,1.25
2022-10-21T17:42:16.323Z,1.00
2022-10-21T17:44:45.923Z,0.75
2022-10-21T17:47:15.382Z,2.00
2022-10-21T17:49:42.449Z,1.00
2022-10-21T17:52:09.664Z,3.00
2022-10-21T17:54:37.787Z,3.25
2022-10-21T17:57:04.746Z,2.50
2022-10-21T17:59:31.693Z,2.75
2022-10-21T18:01:58.880Z,1.50
2022-10-21T18:04:25.640Z,1.75
2022-10-21T18:06:52.899Z,3.25
2022-10-21T18:09:19.808Z,4.50
2022-10-21T18:11:51.026Z,4.00
2022-10-21T18:14:17.886Z,3.50
2022-10-21T18:16:47.779Z,1.50
2022-10-21T18:19:14.576Z,1.00
2022-10-21T18:21:43.795Z,2.00
2022-10-21T18:24:12.677Z,1.00
2022-10-21T18:26:45.077Z,0.25
2022-10-21T18:29:13.318Z,1.00
2022-10-21T18:31:40.167Z,1.00
2022-10-21T18:34:07.381Z,1.00
2022-10-21T18:36:34.443Z,1.00
2022-10-21T18:39:05.453Z,1.00
2022-10-21T18:41:32.553Z,2.00
2022-10-21T18:44:02.637Z,1.50
2022-10-21T18:46:37.576Z,2.00
2022-10-21T18:49:15.848Z,3.00
2022-10-21T18:51:43.252Z,2.00
2022-10-21T18:54:10.099Z,1.00
2022-10-21T18:56:37.191Z,1.00
2022-10-21T18:59:07.358Z,1.00
2022-10-21T19:01:38.374Z,1.00
2022-10-21T19:04:05.241Z,1.00
2022-10-21T19:06:39.673Z,1.00
2022-10-21T19:09:11.690Z,1.00
2022-10-21T19:11:39.060Z,1.00
2022-10-21T19:14:08.399Z,1.00
2022-10-21T19:16:39.569Z,2.25
2022-10-21T19:19:07.405Z,3.00
2022-10-21T19:21:34.421Z,3.75
2022-10-21T19:24:01.233Z,5.50
2022-10-21T19:26:28.595Z,3.00
2022-10-21T19:29:00.634Z,5.00
2022-10-21T19:31:27.655Z,5.00
2022-10-21T19:33:55.959Z,3.50
2022-10-21T19:36:22.986Z,4.00
2022-10-21T19:38:49.906Z,3.00
2022-10-21T19:41:20.693Z,4.00
2022-10-21T19:43:48.939Z,13.25
2022-10-21T19:46:22.249Z,5.75
2022-10-21T19:48:52.071Z,6.75
2022-10-21T19:51:24.648Z,3.25
2022-10-21T19:53:52.722Z,1.00
2022-10-21T19:56:25.494Z,2.00
2022-10-21T19:58:54.333Z,1.75
2022-10-21T20:01:25.227Z,2.00
2022-10-21T20:03:54.027Z,1.00
2022-10-21T20:06:25.605Z,1.00
2022-10-21T20:08:53.943Z,1.25
2022-10-21T20:11:21.792Z,0.00
2022-10-21T20:13:50.188Z,1.00
2022-10-21T20:16:20.804Z,1.00
2022-10-21T20:18:48.291Z,1.00
2022-10-21T20:21:15.183Z,1.00
2022-10-21T20:23:43.316Z,1.00
2022-10-21T20:26:10.261Z,2.75
2022-10-21T20:28:38.308Z,1.00
2022-10-21T20:31:08.737Z,3.25
2022-10-21T20:33:38.203Z,7.50
2022-10-21T20:36:07.858Z,9.75
2022-10-21T20:38:34.660Z,6.75
2022-10-21T20:41:05.846Z,1.50
2022-10-21T20:43:35.875Z,1.75
2022-10-21T20:46:03.894Z,4.25
2022-10-21T20:48:31.275Z,2.00
2022-10-21T20:51:02.498Z,4.00
2022-10-21T20:53:31.241Z,5.00
2022-10-21T20:55:59.533Z,5.00
2022-10-21T20:58:34.022Z,4.00
2022-10-21T21:01:07.310Z,2.00
2022-10-21T21:03:34.172Z,2.00
2022-10-21T21:06:01.327Z,3.75
2022-10-21T21:08:28.256Z,4.00
2022-10-21T21:11:00.039Z,3.25
2022-10-21T21:13:26.845Z,5.00
2022-10-21T21:16:05.804Z,4.25
2022-10-21T21:18:33.244Z,3.75
2022-10-21T21:21:06.549Z,3.50
2022-10-21T21:23:34.731Z,1.25
2022-10-21T21:26:03.739Z,2.00
2022-10-21T21:28:33.994Z,1.50
2022-10-21T21:31:04.830Z,4.75
2022-10-21T21:33:32.155Z,5.00
2022-10-21T21:35:59.377Z,3.00
2022-10-21T21:38:28.496Z,3.25
2022-10-21T21:40:55.769Z,3.25
2022-10-21T21:43:22.573Z,5.50
2022-10-21T21:45:49.383Z,6.00
2022-10-21T21:48:18.505Z,4.25
2022-10-21T21:50:46.253Z,5.00
2022-10-21T21:53:16.833Z,3.00
2022-10-21T21:55:43.649Z,4.50
2022-10-21T21:58:10.467Z,4.25
2022-10-21T22:00:37.826Z,4.75
2022-10-21T22:03:05.286Z,5.00
2022-10-21T22:05:33.524Z,3.25
2022-10-21T22:08:02.147Z,3.25
2022-10-21T22:10:29.498Z,1.50
2022-10-21T22:12:56.850Z,1.25
2022-10-21T22:15:43.362Z,3.00
2022-10-21T22:18:11.086Z,3.00
2022-10-21T22:20:40.643Z,2.00
2022-10-21T22:23:07.659Z,1.00
2022-10-21T22:25:34.614Z,2.00
2022-10-21T22:28:01.760Z,1.75
2022-10-21T22:30:28.683Z,2.00
2022-10-21T22:32:55.477Z,3.00
2022-10-21T22:35:22.258Z,2.75
2022-10-21T22:37:50.350Z,2.50
2022-10-21T22:40:17.376Z,1.25
2022-10-21T22:45:16.145Z,1.00
2022-10-21T22:47:43.029Z,1.00
2022-10-21T22:50:10.082Z,1.00
2022-10-21T22:52:36.855Z,1.00
2022-10-21T22:55:07.315Z,1.00
2022-10-21T22:57:34.183Z,0.00
2022-10-21T23:00:00.950Z,0.00
2022-10-21T23:02:27.934Z,0.00
2022-10-21T23:04:54.715Z,1.00
2022-10-21T23:07:21.500Z,0.50
2022-10-21T23:09:48.571Z,0.75
2022-10-21T23:12:16.681Z,0.00
2022-10-21T23:14:43.466Z,0.00
2022-10-21T23:17:10.269Z,0.00
2022-10-21T23:19:37.055Z,0.25
2022-10-21T23:22:03.850Z,0.00
2022-10-21T23:24:30.763Z,0.50
2022-10-21T23:27:00.572Z,0.00
2022-10-21T23:29:29.905Z,0.00
2022-10-21T23:31:56.718Z,0.25
2022-10-21T23:34:23.571Z,0.00
2022-10-21T23:36:50.366Z,0.00
2022-10-21T23:39:17.141Z,0.00
2022-10-21T23:41:43.916Z,0.00
2022-10-21T23:44:10.678Z,0.00
2022-10-21T23:46:38.827Z,0.00
2022-10-21T23:49:05.764Z,0.00
2022-10-21T23:51:32.851Z,0.00
2022-10-21T23:53:59.696Z,0.00
2022-10-21T23:56:26.549Z,0.00
2022-10-21T23:58:53.571Z,0.00
